Terminal Aerodrome Forecast
Issued by NWS

Home | Current Version | Previous Version | Text Only | Print | Product List | Glossary On
Versions: 1 2 3 4 5 6 7 8 9 10 11 12 13
000
FTUS45 KABQ 300500
TAFFMN
TAF
KFMN 300540Z 3006/3106 15011KT P6SM VCSH SCT015 BKN050
      TEMPO 3008/3012 5SM -RA BR SCT007 BKN015
     FM301200 10011KT 2SM -RASN BR SCT003 OVC007
     FM301600 10011KT 5SM -RA BR SCT007 BKN015=

USA.gov is the U.S. government's official web portal to all federal, state and local government web resources and services.